Date,TemperatureHighF,TemperatureAvgF,TemperatureLowF,DewpointHighF,DewpointAvgF,DewpointLowF,HumidityHigh,HumidityAvg,HumidityLow,PressureMaxIn,PressureMinIn,WindSpeedMaxMPH,WindSpeedAvgMPH,GustSpeedMaxMPH,PrecipitationSumIn
2013-1-1,77,65,54,62,58,52,95,80,57,30.19,30.02,8,1,16,0.01
2013-1-2,77,68,60,68,63,57,95,86,67,30.05,29.97,7,2,12,0.01
2013-1-3,80,68,61,69,64,59,96,88,57,30.13,30.00,8,2,13,0.06
2013-1-4,66,61,58,61,58,56,94,91,83,30.25,30.11,7,5,12,0.05
2013-1-5,80,67,58,66,61,56,93,82,62,30.27,30.14,6,2,11,0.01
2013-1-6,80,69,63,71,65,61,96,88,70,30.17,30.04,9,2,13,0.01
2013-1-7,68,65,62,65,61,58,94,88,78,30.18,30.08,8,4,14,0.03
2013-1-8,85,71,62,71,65,60,95,82,57,30.19,30.09,4,1,10,0.02
2013-1-9,86,76,69,72,68,66,95,79,53,30.25,30.14,5,2,13,0.01
2013-1-10,85,76,68,71,66,62,95,75,50,30.26,30.16,7,2,19,0.01
2013-1-11,85,73,64,70,65,61,94,78,47,30.24,30.10,8,2,17,0.01
2013-1-12,85,72,64,69,66,62,95,83,56,30.16,30.05,5,1,12,0.01
2013-1-13,83,72,64,69,66,62,94,81,55,30.14,30.03,6,1,9,0.01
2013-1-14,81,70,63,66,62,60,95,78,50,30.16,30.09,6,1,12,0.01
2013-1-15,81,70,61,68,63,59,95,80,59,30.12,30.03,6,1,11,0.01
2013-1-16,81,71,63,67,64,60,95,79,51,30.09,29.98,6,1,10,0.01
2013-1-17,73,65,59,70,61,51,96,87,70,30.13,29.98,11,5,24,0.02
2013-1-18,65,56,44,58,49,37,91,77,61,30.29,30.13,12,6,22,0.01
2013-1-19,75,65,55,62,58,51,89,78,64,30.24,30.09,9,4,17,0.00
2013-1-20,77,67,62,66,62,59,91,83,66,30.15,30.01,5,2,10,0.00
2013-1-21,75,66,62,66,60,55,87,81,72,30.08,30.00,7,2,13,0.00
2013-1-22,67,61,55,56,45,35,80,57,31,30.26,30.05,10,4,15,0.00
2013-1-23,72,59,48,52,42,36,84,57,28,30.34,30.24,6,2,12,0.00
2013-1-24,74,59,47,55,49,43,93,70,40,30.32,30.22,6,2,12,0.00
2013-1-25,75,62,51,58,53,49,95,77,43,30.29,30.17,6,1,9,0.01
2013-1-26,75,63,51,61,56,49,94,79,49,30.27,30.15,4,1,11,0.01
2013-1-27,81,66,55,62,56,53,95,73,38,30.27,30.18,7,2,13,0.01
2013-1-28,84,70,61,66,61,57,92,75,44,30.29,30.17,7,1,14,0.01
2013-1-29,85,71,62,69,64,59,94,79,53,30.22,30.06,7,2,14,0.00
2013-1-30,81,73,67,68,66,64,90,79,62,30.07,29.90,10,5,25,0.00
2013-1-31,73,60,52,68,45,38,84,58,38,30.22,29.91,11,6,18,0.08
2013-2-1,70,57,46,48,39,32,81,55,26,30.34,30.20,10,2,17,0.02
2013-2-2,72,58,46,54,46,40,84,65,35,30.28,30.13,5,2,10,0.00
2013-2-3,71,59,49,57,52,45,90,76,54,30.19,30.08,8,2,16,0.00
2013-2-4,72,58,47,54,48,37,95,72,30,30.13,30.02,5,1,11,0.01
2013-2-5,76,62,49,57,51,42,87,69,47,30.07,29.98,4,1,10,0.01
2013-2-6,81,68,57,64,58,53,90,75,49,30.09,30.00,5,1,10,0.00
2013-2-7,81,70,62,67,63,60,94,80,53,30.03,29.88,9,3,18,0.04
2013-2-8,78,70,62,67,63,58,92,81,60,30.06,29.87,8,4,15,0.04
2013-2-9,80,67,57,59,56,54,92,72,42,30.16,30.04,8,3,15,0.00
2013-2-10,83,70,61,64,60,56,90,72,47,30.22,30.10,8,2,16,0.00
2013-2-11,82,71,61,68,64,58,93,79,58,30.17,30.06,10,2,16,0.00
2013-2-12,81,72,64,71,68,62,96,86,68,30.08,29.94,8,3,19,0.01
2013-2-13,76,70,64,72,65,56,92,86,71,29.97,29.85,19,4,34,0.08
2013-2-14,67,64,61,61,59,55,95,85,72,30.01,29.91,10,2,17,0.62
2013-2-15,70,62,59,62,59,55,95,88,72,30.06,29.95,5,2,9,0.20
2013-2-16,68,60,56,56,52,41,87,74,57,30.10,29.92,15,7,25,0.01
2013-2-17,57,50,42,42,30,23,70,48,29,30.32,30.10,13,5,21,0.01
2013-2-18,73,55,39,48,40,31,83,59,38,30.34,30.19,6,2,17,0.00
2013-2-19,76,64,52,63,56,47,91,75,54,30.19,30.07,8,2,15,0.00
2013-2-20,79,67,60,67,62,58,95,85,65,30.10,29.99,7,2,12,0.00
2013-2-21,81,69,59,68,62,56,92,79,61,30.09,29.96,7,2,12,0.00
2013-2-22,84,72,62,70,66,60,95,83,59,30.05,29.97,11,3,18,0.01
2013-2-23,81,74,69,73,70,67,94,87,75,29.99,29.88,11,4,21,0.01
2013-2-24,81,73,68,71,69,67,96,89,71,29.95,29.87,8,3,15,0.00
2013-2-25,84,78,73,71,70,68,89,75,60,29.87,29.76,8,3,20,0.01
2013-2-26,78,73,67,73,68,64,94,86,76,29.88,29.69,8,4,25,0.47
2013-2-27,72,68,61,65,60,55,88,77,62,29.97,29.86,6,3,15,0.01
2013-2-28,67,62,60,59,56,52,86,80,71,29.96,29.93,9,3,13,0.00
2013-3-1,62,60,55,53,48,42,74,66,57,30.01,29.90,9,5,18,0.00
2013-3-2,60,56,50,48,44,40,75,64,56,30.06,29.97,13,6,21,0.00
2013-3-3,56,51,43,45,40,31,74,65,57,30.14,29.97,13,7,23,0.00
2013-3-4,65,55,43,47,41,33,86,63,32,30.22,30.11,7,3,14,0.00
2013-3-5,72,59,45,62,52,41,90,77,57,30.16,30.03,8,2,16,0.00
2013-3-6,67,61,56,64,52,44,91,72,52,30.12,29.95,13,8,24,0.04
2013-3-7,65,55,46,49,42,36,83,63,41,30.21,30.11,8,4,14,0.02
2013-3-8,70,56,47,53,48,43,89,74,41,30.22,30.11,6,2,13,0.00
2013-3-9,79,65,51,53,49,45,91,60,32,30.19,30.09,4,1,11,0.00
2013-3-10,82,67,58,60,56,51,87,68,41,30.15,30.01,8,2,17,0.00
2013-3-11,79,68,58,63,59,55,92,75,50,30.08,29.89,9,3,15,0.00
2013-3-12,69,66,59,67,61,53,93,85,78,30.03,29.84,9,4,20,0.49
2013-3-13,74,63,58,54,48,40,84,61,30,30.17,30.02,12,5,20,0.01
2013-3-14,69,61,54,53,44,31,79,55,26,30.25,30.14,10,5,18,0.00
2013-3-15,71,58,46,49,44,32,90,64,27,30.27,30.14,7,2,12,0.00
2013-3-16,74,61,47,57,50,44,91,71,40,30.18,30.06,8,1,12,0.00
2013-3-17,76,65,53,61,56,51,94,77,56,30.11,29.98,9,1,15,0.01
2013-3-18,77,68,61,69,64,59,93,87,72,30.02,29.87,9,2,19,0.09
2013-3-19,84,72,65,69,65,63,94,81,54,29.99,29.87,8,2,14,0.01
2013-3-20,74,68,62,66,63,59,92,85,60,29.95,29.80,12,3,23,0.26
2013-3-21,71,63,55,61,48,37,92,62,31,29.98,29.86,8,4,15,0.25
2013-3-22,78,64,49,70,55,44,91,75,47,29.98,29.86,6,2,14,0.28
2013-3-23,81,73,66,74,69,64,96,89,77,29.95,29.78,9,3,17,0.28
2013-3-24,80,74,70,74,71,68,95,91,81,29.82,29.65,10,5,26,0.02
2013-3-25,71,66,59,69,53,40,93,67,39,30.04,29.74,13,7,22,0.02
2013-3-26,60,57,52,50,44,39,69,63,55,30.23,30.03,17,8,26,0.00
2013-3-27,62,53,45,46,39,34,76,59,45,30.31,30.20,9,4,16,0.00
2013-3-28,72,57,44,48,41,32,87,61,26,30.29,30.18,8,2,17,0.00
2013-3-29,78,62,49,55,46,37,87,61,24,30.31,30.17,7,1,13,0.00
2013-3-30,75,64,53,59,52,46,87,66,41,30.23,30.12,9,2,17,0.00
2013-3-31,79,68,58,63,56,-100,87,70,47,30.16,30.00,8,2,15,0.00
2013-4-1,80,71,64,69,66,61,93,83,63,30.02,29.95,11,3,17,0.00
2013-4-2,80,72,66,67,64,59,95,79,49,30.07,29.98,7,2,10,0.00
2013-4-3,86,74,64,70,66,61,94,78,47,30.06,29.92,9,3,17,0.01
2013-4-4,73,70,67,70,67,65,95,91,84,30.06,29.84,9,2,20,3.03
2013-4-5,73,69,64,68,63,57,93,82,66,29.96,29.80,13,6,20,0.05
2013-4-6,79,67,59,64,58,54,87,75,49,30.08,29.96,9,3,15,0.03
2013-4-7,83,72,62,67,61,58,92,72,44,30.13,30.02,4,0,13,0.01
2013-4-8,87,74,63,66,62,58,90,68,37,30.10,30.01,6,1,14,0.01
2013-4-9,87,74,63,68,64,60,93,73,44,30.12,30.03,5,1,14,0.01
2013-4-10,87,75,64,71,66,61,92,74,52,30.09,29.94,7,2,17,0.00
2013-4-11,89,80,71,74,71,65,91,74,55,29.97,29.80,9,4,17,0.00
2013-4-12,81,77,74,75,73,69,93,87,80,29.91,29.80,9,3,18,0.06
2013-4-13,86,77,71,74,70,66,92,80,58,29.96,29.86,7,2,11,0.00
2013-4-14,87,77,70,74,70,64,93,78,59,29.99,29.83,13,3,26,0.00
2013-4-15,89,78,69,73,68,62,84,72,57,30.05,29.92,6,2,12,0.00
2013-4-16,93,81,71,75,70,67,93,72,45,30.11,30.00,7,2,14,0.00
2013-4-17,91,79,69,69,66,60,91,67,37,30.11,29.98,7,2,26,0.00
2013-4-18,88,78,68,73,69,65,91,74,53,30.03,29.92,7,2,13,0.00
2013-4-19,88,79,72,74,71,68,94,78,55,29.99,29.91,10,3,20,0.05
2013-4-20,78,74,67,73,67,62,91,81,68,30.11,29.95,8,4,17,0.01
2013-4-21,86,73,63,71,66,59,89,79,56,30.11,29.98,9,4,15,0.02
2013-4-22,83,73,69,74,68,65,94,86,68,30.06,29.95,8,3,16,0.41
2013-4-23,87,76,67,69,65,62,91,72,45,30.08,29.98,8,4,16,0.01
2013-4-24,83,73,65,69,66,62,89,77,57,30.11,30.05,5,2,14,0.00
2013-4-25,87,75,66,73,67,63,91,76,50,30.19,30.07,8,2,14,0.00
2013-4-26,90,77,66,73,66,62,90,72,42,30.22,30.11,4,1,15,0.00
2013-4-27,88,78,69,70,66,63,92,69,45,30.19,30.04,8,2,13,0.00
2013-4-28,89,77,66,71,64,-100,90,70,41,30.09,29.93,7,2,15,0.00
2013-4-29,85,77,68,72,67,62,87,71,52,30.00,29.88,9,3,16,0.00
2013-4-30,89,77,70,74,69,65,93,78,50,29.97,29.88,7,2,16,1.82
2013-5-1,75,70,67,73,68,65,95,93,87,29.97,29.88,7,1,12,2.98
2013-5-2,78,72,67,72,69,65,94,89,78,29.94,29.79,5,1,11,0.40
2013-5-3,82,75,68,72,69,66,95,83,68,29.81,29.70,9,3,16,0.01
2013-5-4,78,74,70,71,68,66,90,84,74,29.80,29.67,13,4,22,0.00
2013-5-5,78,71,66,69,60,54,92,70,48,29.93,29.78,11,6,22,0.06
2013-5-6,75,71,66,65,61,58,84,72,61,30.00,29.88,8,4,14,0.02
2013-5-7,76,70,62,62,60,57,89,72,56,30.04,29.96,8,3,15,0.01
2013-5-9,86,78,67,68,65,61,90,66,45,30.13,30.06,7,1,15,0.00
2013-5-10,88,76,67,73,66,-100,94,75,48,30.12,29.98,9,2,15,0.00
2013-5-11,88,79,72,76,73,69,95,82,55,30.04,29.97,9,3,14,0.00
2013-5-12,85,78,74,76,71,-100,94,82,64,30.04,29.92,8,3,15,0.00
2013-5-13,84,76,70,71,64,53,86,68,43,30.11,29.99,10,4,16,0.00
2013-5-14,85,73,61,61,55,47,76,55,29,30.19,30.08,8,3,16,0.00
2013-5-15,89,75,63,68,60,53,84,63,34,30.18,30.04,7,1,13,0.00
2013-5-16,84,71,67,69,43,-100,84,72,55,30.08,29.97,6,2,11,0.00
2013-5-17,86,76,67,70,60,-100,89,72,56,30.07,30.00,6,2,12,0.00
2013-5-18,88,79,70,75,70,65,94,74,51,30.09,29.99,7,2,13,0.00
2013-5-19,88,80,72,72,69,66,91,72,53,30.07,29.96,7,1,11,0.00
2013-5-20,91,79,72,77,70,66,89,76,52,30.05,29.93,8,2,24,0.00
2013-5-21,88,76,70,73,70,67,92,82,55,29.99,29.89,8,2,14,0.00
2013-5-22,86,78,69,75,71,67,93,80,62,29.94,29.87,8,2,15,0.00
2013-5-23,87,80,73,75,73,70,93,80,59,29.99,29.89,7,3,13,0.00
2013-5-24,88,82,75,78,73,67,91,76,56,30.05,29.95,8,3,15,0.00
2013-5-25,92,82,73,71,67,62,88,63,38,30.14,30.02,8,3,16,0.00
2013-5-26,89,78,67,66,61,54,89,60,32,30.19,30.07,7,2,12,0.00
2013-5-27,91,79,68,68,64,61,88,64,40,30.15,30.01,9,2,15,0.00
2013-5-28,92,78,71,75,70,67,91,78,51,30.11,29.98,11,3,21,0.39
2013-5-29,90,78,72,75,71,70,94,80,54,30.06,29.99,8,2,19,0.05
2013-5-30,89,80,73,74,71,68,92,77,58,30.04,29.96,9,3,21,0.04
2013-5-31,89,78,73,76,72,69,89,83,62,30.06,29.98,7,2,15,0.18
2013-6-1,87,78,73,77,74,71,94,86,69,30.01,29.93,7,1,13,0.92
2013-6-2,88,80,73,79,73,-100,95,84,63,29.97,29.88,7,2,13,0.74
2013-6-3,83,78,75,78,74,72,95,88,79,29.97,29.88,7,1,12,0.30
2013-6-4,83,79,75,77,74,71,92,86,74,29.99,29.91,9,1,18,0.04
2013-6-5,85,78,74,76,74,71,93,85,68,29.98,29.85,6,2,14,0.22
2013-6-6,79,76,74,75,74,72,95,92,85,29.86,29.66,13,5,28,2.70
2013-6-7,85,79,74,76,74,72,94,84,65,29.94,29.77,7,2,14,0.11
2013-6-8,87,78,72,79,74,70,95,88,71,30.07,29.94,7,2,17,2.49
2013-6-9,92,79,72,79,74,70,96,86,61,30.07,29.98,8,1,14,3.02
2013-6-10,89,81,75,78,75,71,95,82,62,30.06,29.98,7,1,14,0.15
2013-6-11,92,81,76,79,75,71,94,82,62,30.06,29.98,5,1,13,0.60
2013-6-12,92,85,75,80,75,71,89,74,60,30.06,29.98,7,2,13,0.01
2013-6-13,88,86,81,77,76,73,84,73,63,30.02,29.89,8,4,16,0.00
2013-6-14,88,83,79,76,75,72,88,78,64,29.94,29.85,9,3,16,0.00
2013-6-15,89,83,76,79,76,72,91,79,68,30.02,29.91,7,3,15,0.13
2013-6-16,93,83,77,80,77,75,94,83,60,30.05,29.98,8,2,18,0.76
2013-6-17,91,84,77,80,76,74,93,79,62,30.05,29.96,6,2,12,0.05
2013-6-18,91,85,77,78,76,72,91,76,56,30.03,29.94,7,2,11,0.03
2013-6-19,90,84,77,80,77,72,92,81,67,30.01,29.95,7,1,16,1.63
2013-6-20,89,82,76,79,75,73,91,80,65,30.06,29.98,8,2,13,0.02
2013-6-22,94,85,76,76,73,67,85,68,44,30.09,30.01,8,3,13,0.20
2013-6-23,93,80,75,78,74,71,94,83,53,30.11,30.02,7,1,12,0.79
2013-6-24,94,80,75,78,74,71,94,85,49,30.15,30.02,8,1,13,0.54
2013-6-25,96,83,75,77,74,71,92,75,45,30.11,29.98,6,2,16,0.53
2013-6-26,90,80,76,78,73,70,92,80,65,30.04,29.98,9,1,17,0.01
2013-6-27,91,80,73,78,74,70,92,82,65,30.02,29.93,6,1,11,0.12
2013-6-28,88,82,76,78,76,73,93,80,68,29.96,29.83,11,3,19,0.15
2013-6-29,88,82,78,77,76,74,91,82,66,29.86,29.78,9,2,22,0.09
2013-6-30,88,81,75,78,76,73,94,85,68,29.87,29.79,11,2,21,1.24
2013-7-1,78,76,74,75,74,72,94,93,88,29.95,29.83,6,1,14,2.39
2013-7-2,89,77,73,77,73,71,95,89,63,30.05,29.94,8,2,21,1.88
2013-7-3,91,78,74,78,74,72,94,88,64,30.06,30.00,6,2,14,0.87
2013-7-4,91,81,75,77,75,72,92,82,61,30.11,30.04,8,3,18,0.80
2013-7-5,89,77,73,78,73,70,94,89,65,30.11,30.03,10,1,25,0.71
2013-7-6,94,82,74,78,74,72,95,81,50,30.09,29.99,7,2,16,0.16
2013-7-7,93,83,76,79,75,73,93,78,54,30.10,29.99,7,1,16,0.12
2013-7-8,92,78,76,77,72,-100,93,85,58,30.12,30.05,4,0,11,0.12
2013-7-9,94,82,76,77,74,71,92,76,47,30.13,30.02,7,1,16,0.01
2013-7-10,90,80,76,77,74,72,92,82,61,30.06,29.94,5,1,11,0.87
2013-7-11,86,80,75,76,74,73,94,83,66,30.00,29.91,9,2,14,0.03
2013-7-12,88,80,76,78,74,72,93,83,68,29.94,29.86,8,1,15,0.25
2013-7-13,86,79,75,78,75,72,93,86,72,29.96,29.88,8,1,14,1.15
2013-7-14,87,78,73,80,74,71,95,89,73,30.05,29.92,8,1,15,0.94
2013-7-15,93,78,74,76,73,72,93,84,53,30.07,29.96,6,1,13,0.77
2013-7-16,88,76,75,77,73,72,94,90,62,30.11,30.03,5,2,12,1.02
2013-7-17,91,77,74,77,73,72,94,88,59,30.12,30.04,6,1,17,0.06
2013-7-18,86,77,73,76,72,70,94,87,69,30.09,30.02,4,1,11,0.04
2013-7-19,89,77,73,78,73,71,94,89,69,30.09,30.03,5,1,10,1.64
2013-7-20,89,80,73,79,74,71,95,83,66,30.08,29.99,7,1,22,0.02
2013-7-21,90,82,74,79,76,72,95,82,66,30.10,30.02,9,2,17,0.01
2013-7-22,90,81,77,79,77,75,94,87,68,30.11,30.04,7,1,12,0.00
2013-7-23,88,84,78,77,76,74,92,79,63,30.07,29.95,8,3,14,0.00
2013-7-24,87,84,80,77,76,74,85,77,67,29.99,29.89,10,5,17,0.00
2013-7-25,87,83,81,78,77,75,87,81,71,29.98,29.87,9,5,17,0.01
2013-7-26,89,82,76,79,77,73,94,85,71,29.99,29.92,7,2,17,1.41
2013-7-27,91,86,79,78,76,73,92,74,60,29.97,29.89,8,3,13,0.01
2013-7-28,89,81,78,79,76,73,93,85,70,30.03,29.91,6,0,17,1.15
2013-7-29,94,80,75,79,74,73,94,84,52,30.11,29.99,7,1,17,1.29
2013-7-30,95,81,76,78,75,72,92,82,50,30.15,30.03,4,1,11,0.02
2013-7-31,94,83,78,78,75,72,92,79,56,30.11,29.98,7,1,11,0.01
2013-8-1,93,82,76,78,74,71,91,78,52,30.03,29.92,5,1,12,0.98
2013-8-2,90,83,75,79,75,73,93,80,65,30.02,29.91,5,1,11,0.01
2013-8-3,91,85,78,79,76,74,91,77,61,30.07,29.98,7,2,13,0.00
2013-8-4,88,83,79,79,78,75,93,83,71,30.07,29.98,7,2,16,0.14
2013-8-5,90,85,81,80,78,76,89,80,66,30.01,29.92,8,2,15,0.13
2013-8-6,91,84,79,80,78,74,91,82,68,29.96,29.87,5,1,10,0.04
2013-8-7,94,82,77,81,76,74,93,83,60,29.93,29.86,7,1,15,0.15
2013-8-8,94,82,76,79,76,73,94,83,53,29.99,29.89,9,2,15,0.23
2013-8-9,94,80,75,78,75,72,94,86,54,30.02,29.93,7,1,13,0.24
2013-8-10,93,84,74,79,76,72,94,78,60,30.09,30.00,7,2,13,0.09
2013-8-11,96,85,76,80,76,73,93,77,52,30.11,30.01,4,2,10,0.01
2013-8-12,95,83,77,79,75,71,93,80,48,30.10,29.97,5,0,11,0.00
2013-8-13,94,84,76,79,73,-100,92,74,51,30.03,29.91,7,2,13,0.00
2013-8-14,90,83,80,79,73,-100,89,75,62,29.98,29.90,6,2,15,0.00
2013-8-15,81,79,78,76,74,73,87,86,84,29.99,29.94,3,1,8,0.00
2013-8-16,93,83,80,79,68,-100,87,71,57,30.02,29.93,4,1,9,0.44
2013-8-19,93,74,75,79,57,-100,94,84,57,30.04,29.93,6,1,14,0.60
2013-8-20,93,78,75,79,72,-100,94,85,60,30.04,29.96,7,1,21,0.21
2013-8-21,94,81,77,79,76,74,93,84,54,30.06,29.96,7,1,20,0.24
2013-8-22,93,80,75,80,76,72,94,86,61,30.04,29.95,6,1,14,0.50
2013-8-23,93,81,76,79,75,72,95,85,58,29.99,29.92,10,2,17,0.10
2013-8-24,93,81,75,80,75,73,96,85,57,30.09,29.96,5,1,12,2.57
2013-8-25,90,78,74,79,72,-100,96,85,64,30.12,30.03,8,2,13,2.54
2013-8-26,92,81,75,77,74,72,93,82,56,30.11,29.97,6,1,15,0.14
2013-8-27,89,79,75,78,74,73,94,86,66,30.02,29.96,6,1,13,0.17
2013-8-29,91,82,75,77,74,72,91,77,56,30.01,29.91,8,2,13,0.01
2013-8-30,89,82,78,78,76,74,91,82,62,29.96,29.87,9,1,16,0.50
2013-8-31,89,82,76,77,75,73,95,81,62,29.96,29.87,6,1,12,0.01
2013-9-1,90,80,75,78,72,-100,93,80,62,29.96,29.89,5,1,10,0.12
2013-9-2,89,81,75,78,75,73,93,83,66,30.00,29.91,6,1,11,0.01
2013-9-3,88,82,75,79,76,71,94,84,68,30.02,29.91,4,1,10,0.61
2013-9-4,91,81,76,78,75,71,91,83,62,30.05,29.93,5,0,17,0.04
2013-9-5,95,82,76,79,75,70,93,80,53,30.06,29.95,4,0,11,0.03
2013-9-6,92,82,75,80,75,71,94,83,58,30.03,29.90,5,0,11,0.23
2013-9-7,91,80,73,77,74,71,93,82,59,29.99,29.88,4,0,12,0.23
2013-9-8,91,80,74,77,71,-100,92,78,60,29.93,29.83,5,0,9,0.01
2013-9-9,94,84,76,77,74,72,92,73,50,29.99,29.90,3,1,10,0.00
2013-9-10,93,83,76,76,73,68,92,73,48,30.04,29.95,6,1,14,0.00
2013-9-11,92,83,75,76,73,68,91,74,54,30.03,29.95,5,1,15,0.02
2013-9-12,89,80,74,77,74,70,94,83,67,29.99,29.85,4,0,9,1.43
2013-9-13,89,80,72,77,74,70,95,83,66,29.89,29.78,2,0,7,0.01
2013-9-14,91,83,75,78,75,72,94,79,58,29.94,29.81,1,0,11,0.29
2013-9-15,94,76,71,78,70,-100,94,87,57,30.06,29.92,4,0,21,1.85
2013-9-16,92,78,74,78,74,72,94,87,62,30.03,29.95,2,0,8,1.21
2013-9-17,91,79,74,78,74,72,95,86,58,30.02,29.91,7,1,19,0.49
2013-9-18,77,75,75,74,73,73,94,93,91,29.97,29.93,1,0,7,0.49
2013-9-19,91,81,74,78,74,71,93,82,60,30.01,29.93,3,0,14,0.02
2013-9-20,90,82,74,75,72,69,92,74,51,30.00,29.86,2,0,11,0.01
2013-9-21,89,80,71,75,71,68,91,76,54,29.91,29.75,3,0,9,0.00
2013-10-1,82,80,78,73,72,72,82,78,74,30.01,29.96,1,0,8,0.00
2013-10-2,90,81,74,76,72,71,92,76,58,30.01,29.93,2,0,13,0.00
2013-10-3,91,81,73,75,72,70,90,76,55,30.03,29.93,4,0,10,0.00
2013-10-4,91,82,75,76,73,71,91,74,53,30.05,29.96,2,0,8,0.00
2013-10-5,92,82,74,76,73,70,90,75,53,30.03,29.90,3,0,14,0.00
2013-10-6,89,81,73,76,73,69,94,78,56,29.96,29.84,1,0,9,0.00
2013-10-7,85,79,75,78,75,73,94,87,76,29.85,29.74,7,1,19,0.67
2013-10-8,85,81,76,76,74,72,87,80,70,29.92,29.78,4,1,11,0.01
2013-10-9,80,76,70,72,70,66,90,83,73,30.01,29.91,3,0,10,0.00
2013-10-10,88,78,68,72,69,65,92,77,54,30.01,29.93,1,0,8,0.00
2013-10-11,88,77,69,71,68,65,93,75,49,30.02,29.92,1,0,6,0.00
2013-10-12,86,77,70,69,66,64,89,71,51,30.02,29.95,1,0,7,0.00
2013-10-13,89,76,68,71,63,-100,91,67,44,30.05,29.95,3,0,9,0.00
2013-10-14,86,76,68,70,67,64,91,74,52,30.02,29.90,2,0,8,0.00
2013-10-15,84,79,73,73,70,69,89,76,61,29.94,29.87,5,1,9,0.00
2013-10-16,83,76,70,74,70,68,93,84,72,29.94,29.87,1,0,6,0.00
2013-10-17,87,78,70,74,70,67,93,79,57,29.95,29.87,1,0,7,0.00
2013-10-18,89,80,72,75,72,69,93,80,61,29.96,29.87,1,0,8,0.00
2013-10-19,88,80,73,77,74,71,93,83,63,29.92,29.84,3,0,8,0.00
2013-10-20,88,80,76,77,72,-100,95,82,67,29.93,29.85,0,0,9,0.00
2013-10-21,87,80,75,77,74,72,94,83,61,29.97,29.89,2,0,9,0.00
2013-10-22,87,79,73,77,74,71,94,86,71,29.92,29.80,6,1,15,0.59
2013-10-23,81,76,71,74,66,54,95,74,43,29.98,29.79,10,2,18,0.60
2013-10-24,74,68,63,60,55,48,81,63,53,30.14,29.97,6,2,14,0.01
2013-10-25,82,74,63,62,59,55,86,62,43,30.21,30.11,5,1,12,0.00
2013-10-26,80,69,60,63,59,52,89,72,39,30.18,30.07,4,0,11,0.00
2013-10-27,83,68,59,64,57,-100,92,70,43,30.10,30.02,4,0,9,0.00
2013-10-28,84,70,61,66,59,-100,88,72,44,30.16,30.06,3,0,8,0.00
2013-10-29,87,76,66,66,64,62,87,69,45,30.17,30.08,5,0,12,0.00
2013-10-30,87,75,67,70,66,64,92,77,50,30.19,30.05,5,0,11,0.00
2013-11-5,85,74,66,70,67,63,92,79,61,30.10,30.01,7,2,17,0.02
2013-11-6,87,76,70,70,68,66,92,78,53,30.07,29.97,3,0,10,0.01
2013-11-7,82,74,67,71,68,65,94,83,66,30.03,29.95,2,0,10,0.00
2013-11-8,81,72,66,69,66,61,93,80,60,30.08,29.97,7,2,14,0.00
2013-11-9,85,73,65,70,63,-100,87,74,59,30.11,30.04,4,1,14,0.00
2013-11-10,86,75,66,70,66,63,89,76,57,30.13,30.03,5,0,10,0.00
2013-11-11,85,75,67,71,67,64,91,77,58,30.13,30.03,3,0,9,0.00
2013-11-12,79,72,68,70,67,63,91,84,71,30.07,29.98,4,1,11,0.00
2013-11-13,71,64,55,62,54,49,81,69,61,30.27,30.04,11,5,21,0.00
2013-11-14,78,67,54,60,56,49,84,69,51,30.25,30.13,5,1,16,0.00
2013-11-15,78,69,63,67,63,59,88,81,67,30.14,30.01,1,0,7,0.00
2013-11-16,80,72,69,72,65,-100,92,82,71,30.09,29.99,1,0,11,0.02
2013-11-17,86,76,70,72,68,64,89,78,57,30.04,29.96,2,0,10,0.01
2013-11-18,83,76,70,73,70,67,93,84,70,30.00,29.91,0,0,4,0.01
2013-12-4,81,72,64,71,67,62,95,84,63,30.05,29.94,3,0,11,0.01
2013-12-5,84,73,64,70,66,62,95,82,59,30.14,30.04,2,0,9,0.01
2013-12-6,84,74,66,73,68,64,96,85,63,30.14,30.05,3,0,14,0.01
2013-12-7,85,73,65,71,65,-100,95,79,52,30.21,30.10,1,0,6,0.01
2013-12-8,86,74,66,71,67,64,95,81,51,30.19,30.06,3,0,11,0.01
2013-12-9,83,73,66,72,68,64,95,84,64,30.15,30.06,2,0,9,0.01
2013-12-10,82,72,63,72,68,62,95,87,69,30.14,30.06,3,0,9,0.01